Tasinge Maersk — OUSX2 — position and weather

sailwx.info

Track history (hours):
 
Tides and Currents Weather Stations Pressure Air Temp Water Temp Dewpoint Dewpoint Depression Visibility Wind Speed Wind Dir Waves Ship Positions

Tasinge Maersk

Last reported at 2016-Jul-13 09:21 UTC. Time now 2016-Jul-27 07:46 UTC.
Position N 28°56' W 012°57'.
Warning: this ship's position is 13 days out of date.

Length 191 m; draft 10 m.

Type: Cargo ship. MMSI: 220157000.

Date/timePositionNaut miles runAvg speedWind from/ knotsBaromVisibWave heightAir tempDewpointWater temp
2016-Jul-13 09:21N 28°56' W 012°57'17416.1
2016-Jul-12 22:30N 31°20' W 011°04'36916.0
2016-Jul-11 23:23N 35°50' W 006°02'26 9.3
2016-Jul-11 20:33N 35°58' W 005°31'8 8.3
2016-Jul-11 19:33N 36°04' W 005°23'5 5.4
2016-Jul-11 18:34N 36°09' W 005°26'0 0.0
2016-Jul-11 16:25N 36°09' W 005°26'0 0.0
2016-Jul-11 15:32N 36°09' W 005°26'0 0.0
2016-Jul-11 14:32N 36°09' W 005°26'0 0.0
2016-Jul-11 13:32N 36°09' W 005°26'0 0.0
2016-Jul-11 12:32N 36°09' W 005°26'0 0.0
2016-Jul-11 11:32N 36°09' W 005°26'0 0.0
2016-Jul-11 10:32N 36°09' W 005°26'0 0.0
2016-Jul-11 09:32N 36°09' W 005°26'0 0.0
2016-Jul-11 06:32N 36°09' W 005°26'0 0.0
2016-Jul-11 04:32N 36°09' W 005°26'0 0.0
2016-Jul-11 03:32N 36°09' W 005°26'0 0.0
2016-Jul-11 02:27N 36°09' W 005°26'0 0.0
2016-Jul-11 01:33N 36°09' W 005°26'0 0.0
2016-Jul-11 00:30N 36°09' W 005°26'0 0.0
2016-Jul-10 23:33N 36°09' W 005°26'0 0.0
2016-Jul-10 22:33N 36°09' W 005°26'0 0.0
2016-Jul-10 21:32N 36°09' W 005°26'0 0.0
2016-Jul-10 20:32N 36°09' W 005°26'0 0.0
2016-Jul-10 19:32N 36°09' W 005°26'0 0.0
2016-Jul-10 18:29N 36°09' W 005°26'0 0.0
2016-Jul-10 17:32N 36°09' W 005°26'0 0.0
2016-Jul-10 16:29N 36°09' W 005°26'0 0.0
2016-Jul-10 15:32N 36°09' W 005°26'0 0.2
2016-Jul-10 14:33N 36°09' W 005°26'6 5.9
2016-Jul-10 13:33N 36°04' W 005°22'1110.6
2016-Jul-10 12:33N 36°06' W 005°09'12 0.4
2016-Jul-09 04:33N 35°58' W 005°20'  
2016-Jul-05 22:26N 29°56' W 012°10'3712.5
2016-Jul-05 19:28N 29°25' W 012°34'1112.3
2016-Jul-05 18:32N 29°16' W 012°41'1312.3
2016-Jul-05 17:29N 29°05' W 012°50'1112.4
2016-Jul-05 16:33N 28°56' W 012°57'1312.6
2016-Jul-05 15:33N 28°45' W 013°05'1312.5
2016-Jul-05 14:33N 28°35' W 013°13'1313.0
2016-Jul-05 13:32N 28°24' W 013°22'1313.3
2016-Jul-05 12:33N 28°13' W 013°30'1413.9
2016-Jul-05 11:33N 28°02' W 013°39'4213.2
2016-Jul-05 08:22N 27°29' W 014°09'  
Track history (hours):
 
Tides and Currents Weather Stations Pressure Air Temp Water Temp Dewpoint Dewpoint Depression Visibility Wind Speed Wind Dir Waves Ship Positions

Tasinge Maersk

Last reported at 2016-Jul-13 09:21 UTC. Time now 2016-Jul-27 07:46 UTC.
Position N 28°56' W 012°57'.
Warning: this ship's position is 13 days out of date.

Length 191 m; draft 10 m.

Type: Cargo ship. MMSI: 220157000.

Date/timePositionNaut miles runAvg speedWind from/ knotsBaromVisibWave heightAir tempDewpointWater temp
2016-Jul-13 09:21N 28°56' W 012°57'17416.1
2016-Jul-12 22:30N 31°20' W 011°04'36916.0
2016-Jul-11 23:23N 35°50' W 006°02'26 9.3
2016-Jul-11 20:33N 35°58' W 005°31'8 8.3
2016-Jul-11 19:33N 36°04' W 005°23'5 5.4
2016-Jul-11 18:34N 36°09' W 005°26'0 0.0
2016-Jul-11 16:25N 36°09' W 005°26'0 0.0
2016-Jul-11 15:32N 36°09' W 005°26'0 0.0
2016-Jul-11 14:32N 36°09' W 005°26'0 0.0
2016-Jul-11 13:32N 36°09' W 005°26'0 0.0
2016-Jul-11 12:32N 36°09' W 005°26'0 0.0
2016-Jul-11 11:32N 36°09' W 005°26'0 0.0
2016-Jul-11 10:32N 36°09' W 005°26'0 0.0
2016-Jul-11 09:32N 36°09' W 005°26'0 0.0
2016-Jul-11 06:32N 36°09' W 005°26'0 0.0
2016-Jul-11 04:32N 36°09' W 005°26'0 0.0
2016-Jul-11 03:32N 36°09' W 005°26'0 0.0
2016-Jul-11 02:27N 36°09' W 005°26'0 0.0
2016-Jul-11 01:33N 36°09' W 005°26'0 0.0
2016-Jul-11 00:30N 36°09' W 005°26'0 0.0
2016-Jul-10 23:33N 36°09' W 005°26'0 0.0
2016-Jul-10 22:33N 36°09' W 005°26'0 0.0
2016-Jul-10 21:32N 36°09' W 005°26'0 0.0
2016-Jul-10 20:32N 36°09' W 005°26'0 0.0
2016-Jul-10 19:32N 36°09' W 005°26'0 0.0
2016-Jul-10 18:29N 36°09' W 005°26'0 0.0
2016-Jul-10 17:32N 36°09' W 005°26'0 0.0
2016-Jul-10 16:29N 36°09' W 005°26'0 0.0
2016-Jul-10 15:32N 36°09' W 005°26'0 0.2
2016-Jul-10 14:33N 36°09' W 005°26'6 5.9
2016-Jul-10 13:33N 36°04' W 005°22'1110.6
2016-Jul-10 12:33N 36°06' W 005°09'12 0.4
2016-Jul-09 04:33N 35°58' W 005°20'  
2016-Jul-05 22:26N 29°56' W 012°10'3712.5
2016-Jul-05 19:28N 29°25' W 012°34'1112.3
2016-Jul-05 18:32N 29°16' W 012°41'1312.3
2016-Jul-05 17:29N 29°05' W 012°50'1112.4
2016-Jul-05 16:33N 28°56' W 012°57'1312.6
2016-Jul-05 15:33N 28°45' W 013°05'1312.5
2016-Jul-05 14:33N 28°35' W 013°13'1313.0
2016-Jul-05 13:32N 28°24' W 013°22'1313.3
2016-Jul-05 12:33N 28°13' W 013°30'1413.9
2016-Jul-05 11:33N 28°02' W 013°39'4213.2
2016-Jul-05 08:22N 27°29' W 014°09'  

Dump ship's entire track history